sensor_id;sensor_type;location;lat;lon;timestamp;P1;durP1;ratioP1;P2;durP2;ratioP2
35699;SDS011;21818;51.078;12.108;2023-03-01T00:01:06;1.77;;;0.85;;
35699;SDS011;21818;51.078;12.108;2023-03-01T00:03:33;1.48;;;0.70;;
35699;SDS011;21818;51.078;12.108;2023-03-01T00:05:59;1.25;;;0.70;;
35699;SDS011;21818;51.078;12.108;2023-03-01T00:08:26;2.05;;;0.75;;
35699;SDS011;21818;51.078;12.108;2023-03-01T00:11:08;1.15;;;0.80;;
35699;SDS011;21818;51.078;12.108;2023-03-01T00:13:38;1.48;;;0.82;;
35699;SDS011;21818;51.078;12.108;2023-03-01T00:16:08;1.70;;;1.10;;
35699;SDS011;21818;51.078;12.108;2023-03-01T00:18:39;1.25;;;0.90;;
35699;SDS011;21818;51.078;12.108;2023-03-01T00:21:04;1.60;;;0.85;;
35699;SDS011;21818;51.078;12.108;2023-03-01T00:23:30;1.75;;;0.98;;
35699;SDS011;21818;51.078;12.108;2023-03-01T00:25:56;2.83;;;0.90;;
35699;SDS011;21818;51.078;12.108;2023-03-01T00:28:22;0.90;;;0.60;;
35699;SDS011;21818;51.078;12.108;2023-03-01T00:30:48;4.38;;;1.52;;
35699;SDS011;21818;51.078;12.108;2023-03-01T00:33:13;1.38;;;0.82;;
35699;SDS011;21818;51.078;12.108;2023-03-01T00:35:39;2.50;;;0.90;;
35699;SDS011;21818;51.078;12.108;2023-03-01T00:38:05;2.00;;;1.10;;
35699;SDS011;21818;51.078;12.108;2023-03-01T00:40:32;2.58;;;1.02;;
35699;SDS011;21818;51.078;12.108;2023-03-01T00:42:59;3.33;;;1.55;;
35699;SDS011;21818;51.078;12.108;2023-03-01T00:45:25;1.70;;;0.88;;
35699;SDS011;21818;51.078;12.108;2023-03-01T00:47:50;1.80;;;0.80;;
35699;SDS011;21818;51.078;12.108;2023-03-01T00:50:16;1.88;;;0.60;;
35699;SDS011;21818;51.078;12.108;2023-03-01T00:52:43;1.48;;;0.80;;
35699;SDS011;21818;51.078;12.108;2023-03-01T00:55:09;2.90;;;0.85;;
35699;SDS011;21818;51.078;12.108;2023-03-01T00:57:35;2.35;;;0.85;;
35699;SDS011;21818;51.078;12.108;2023-03-01T01:00:01;2.15;;;1.17;;
35699;SDS011;21818;51.078;12.108;2023-03-01T01:02:29;1.63;;;0.88;;
35699;SDS011;21818;51.078;12.108;2023-03-01T01:04:54;1.35;;;0.85;;
35699;SDS011;21818;51.078;12.108;2023-03-01T01:07:20;1.92;;;0.95;;
35699;SDS011;21818;51.078;12.108;2023-03-01T01:09:45;1.30;;;0.80;;
35699;SDS011;21818;51.078;12.108;2023-03-01T01:12:11;1.42;;;0.90;;
35699;SDS011;21818;51.078;12.108;2023-03-01T01:14:37;1.67;;;1.05;;
35699;SDS011;21818;51.078;12.108;2023-03-01T01:17:02;1.48;;;0.80;;
35699;SDS011;21818;51.078;12.108;2023-03-01T01:19:29;1.95;;;0.98;;
35699;SDS011;21818;51.078;12.108;2023-03-01T01:21:54;2.33;;;1.00;;
35699;SDS011;21818;51.078;12.108;2023-03-01T01:24:20;0.98;;;0.70;;
35699;SDS011;21818;51.078;12.108;2023-03-01T01:26:46;1.50;;;0.95;;
35699;SDS011;21818;51.078;12.108;2023-03-01T01:29:11;1.92;;;0.75;;
35699;SDS011;21818;51.078;12.108;2023-03-01T01:31:38;1.55;;;0.90;;
35699;SDS011;21818;51.078;12.108;2023-03-01T01:34:05;2.40;;;1.10;;
35699;SDS011;21818;51.078;12.108;2023-03-01T01:36:32;1.92;;;0.75;;
35699;SDS011;21818;51.078;12.108;2023-03-01T01:38:58;1.25;;;0.80;;
35699;SDS011;21818;51.078;12.108;2023-03-01T01:41:25;1.40;;;0.70;;
35699;SDS011;21818;51.078;12.108;2023-03-01T01:46:39;1.48;;;0.82;;
35699;SDS011;21818;51.078;12.108;2023-03-01T01:49:12;1.73;;;1.00;;
35699;SDS011;21818;51.078;12.108;2023-03-01T01:51:42;2.00;;;1.13;;
35699;SDS011;21818;51.078;12.108;2023-03-01T01:54:15;1.23;;;0.90;;
35699;SDS011;21818;51.078;12.108;2023-03-01T01:56:48;3.70;;;1.25;;
35699;SDS011;21818;51.078;12.108;2023-03-01T01:59:18;2.10;;;0.98;;
35699;SDS011;21818;51.078;12.108;2023-03-01T02:01:49;2.83;;;0.95;;
35699;SDS011;21818;51.078;12.108;2023-03-01T02:04:15;3.95;;;1.48;;
35699;SDS011;21818;51.078;12.108;2023-03-01T02:06:42;5.80;;;1.90;;
35699;SDS011;21818;51.078;12.108;2023-03-01T02:09:15;3.00;;;1.60;;
35699;SDS011;21818;51.078;12.108;2023-03-01T02:11:43;3.38;;;1.67;;
35699;SDS011;21818;51.078;12.108;2023-03-01T02:14:09;2.55;;;1.52;;
35699;SDS011;21818;51.078;12.108;2023-03-01T02:16:35;2.88;;;1.60;;
35699;SDS011;21818;51.078;12.108;2023-03-01T02:19:01;2.45;;;1.30;;
35699;SDS011;21818;51.078;12.108;2023-03-01T02:21:32;2.22;;;1.48;;
35699;SDS011;21818;51.078;12.108;2023-03-01T02:24:35;2.85;;;1.27;;
35699;SDS011;21818;51.078;12.108;2023-03-01T02:27:18;3.05;;;1.30;;
35699;SDS011;21818;51.078;12.108;2023-03-01T02:29:49;2.08;;;1.33;;
35699;SDS011;21818;51.078;12.108;2023-03-01T02:32:15;3.00;;;1.67;;
35699;SDS011;21818;51.078;12.108;2023-03-01T02:34:49;3.05;;;1.35;;
35699;SDS011;21818;51.078;12.108;2023-03-01T02:37:20;2.53;;;1.23;;
35699;SDS011;21818;51.078;12.108;2023-03-01T02:39:51;2.42;;;1.00;;
35699;SDS011;21818;51.078;12.108;2023-03-01T02:42:23;2.65;;;1.60;;
35699;SDS011;21818;51.078;12.108;2023-03-01T02:44:55;2.00;;;1.23;;
35699;SDS011;21818;51.078;12.108;2023-03-01T02:47:21;3.10;;;1.05;;
35699;SDS011;21818;51.078;12.108;2023-03-01T02:49:46;5.55;;;2.28;;
35699;SDS011;21818;51.078;12.108;2023-03-01T02:52:17;2.88;;;1.50;;
35699;SDS011;21818;51.078;12.108;2023-03-01T02:55:10;2.38;;;1.27;;
35699;SDS011;21818;51.078;12.108;2023-03-01T02:57:39;2.30;;;1.40;;
35699;SDS011;21818;51.078;12.108;2023-03-01T03:00:09;2.05;;;1.20;;
35699;SDS011;21818;51.078;12.108;2023-03-01T03:02:44;2.78;;;1.13;;
35699;SDS011;21818;51.078;12.108;2023-03-01T03:05:12;2.33;;;1.45;;
35699;SDS011;21818;51.078;12.108;2023-03-01T03:07:41;2.83;;;1.50;;
35699;SDS011;21818;51.078;12.108;2023-03-01T03:10:10;3.22;;;1.55;;
35699;SDS011;21818;51.078;12.108;2023-03-01T03:12:44;2.13;;;1.30;;
35699;SDS011;21818;51.078;12.108;2023-03-01T03:15:13;2.05;;;1.30;;
35699;SDS011;21818;51.078;12.108;2023-03-01T03:17:40;2.88;;;1.45;;
35699;SDS011;21818;51.078;12.108;2023-03-01T03:20:08;2.50;;;1.30;;
35699;SDS011;21818;51.078;12.108;2023-03-01T03:22:37;3.30;;;1.60;;
35699;SDS011;21818;51.078;12.108;2023-03-01T03:25:06;2.00;;;1.15;;
35699;SDS011;21818;51.078;12.108;2023-03-01T03:27:37;1.90;;;1.37;;
35699;SDS011;21818;51.078;12.108;2023-03-01T03:30:04;2.65;;;1.23;;
35699;SDS011;21818;51.078;12.108;2023-03-01T03:32:34;2.58;;;1.40;;
35699;SDS011;21818;51.078;12.108;2023-03-01T03:35:01;2.78;;;1.23;;
35699;SDS011;21818;51.078;12.108;2023-03-01T03:37:34;2.80;;;1.55;;
35699;SDS011;21818;51.078;12.108;2023-03-01T03:40:22;2.85;;;1.70;;
35699;SDS011;21818;51.078;12.108;2023-03-01T03:42:47;3.40;;;1.58;;
35699;SDS011;21818;51.078;12.108;2023-03-01T03:45:14;2.72;;;1.38;;
35699;SDS011;21818;51.078;12.108;2023-03-01T03:47:40;2.67;;;1.20;;
35699;SDS011;21818;51.078;12.108;2023-03-01T03:50:06;2.30;;;1.20;;
35699;SDS011;21818;51.078;12.108;2023-03-01T03:52:32;1.63;;;0.90;;
35699;SDS011;21818;51.078;12.108;2023-03-01T03:54:58;3.63;;;1.20;;
35699;SDS011;21818;51.078;12.108;2023-03-01T03:57:23;2.50;;;1.10;;
35699;SDS011;21818;51.078;12.108;2023-03-01T03:59:49;2.33;;;1.10;;
35699;SDS011;21818;51.078;12.108;2023-03-01T04:02:14;1.92;;;1.10;;
35699;SDS011;21818;51.078;12.108;2023-03-01T04:04:46;2.70;;;1.25;;
35699;SDS011;21818;51.078;12.108;2023-03-01T04:07:15;2.40;;;1.40;;
35699;SDS011;21818;51.078;12.108;2023-03-01T04:09:42;3.08;;;1.40;;
35699;SDS011;21818;51.078;12.108;2023-03-01T04:12:08;2.50;;;1.10;;
35699;SDS011;21818;51.078;12.108;2023-03-01T04:14:33;3.00;;;1.63;;
35699;SDS011;21818;51.078;12.108;2023-03-01T04:16:59;3.17;;;1.27;;
35699;SDS011;21818;51.078;12.108;2023-03-01T04:19:25;1.98;;;1.20;;
35699;SDS011;21818;51.078;12.108;2023-03-01T04:21:51;1.98;;;1.30;;
35699;SDS011;21818;51.078;12.108;2023-03-01T04:24:17;1.80;;;1.13;;
35699;SDS011;21818;51.078;12.108;2023-03-01T04:26:43;2.45;;;1.25;;
35699;SDS011;21818;51.078;12.108;2023-03-01T04:29:09;2.10;;;1.10;;
35699;SDS011;21818;51.078;12.108;2023-03-01T04:31:35;2.72;;;1.20;;
35699;SDS011;21818;51.078;12.108;2023-03-01T04:34:01;2.97;;;1.30;;
35699;SDS011;21818;51.078;12.108;2023-03-01T04:36:27;2.55;;;1.10;;
35699;SDS011;21818;51.078;12.108;2023-03-01T04:38:54;1.75;;;1.30;;
35699;SDS011;21818;51.078;12.108;2023-03-01T04:41:21;2.13;;;1.27;;
35699;SDS011;21818;51.078;12.108;2023-03-01T04:43:48;2.63;;;1.48;;
35699;SDS011;21818;51.078;12.108;2023-03-01T04:46:14;1.50;;;1.10;;
35699;SDS011;21818;51.078;12.108;2023-03-01T04:48:43;1.80;;;1.20;;
35699;SDS011;21818;51.078;12.108;2023-03-01T04:51:10;1.95;;;1.20;;
35699;SDS011;21818;51.078;12.108;2023-03-01T04:53:39;4.13;;;1.30;;
35699;SDS011;21818;51.078;12.108;2023-03-01T04:56:06;3.05;;;1.88;;
35699;SDS011;21818;51.078;12.108;2023-03-01T04:58:32;3.08;;;1.50;;
35699;SDS011;21818;51.078;12.108;2023-03-01T05:00:57;2.10;;;1.63;;
35699;SDS011;21818;51.078;12.108;2023-03-01T05:03:23;2.45;;;1.38;;
35699;SDS011;21818;51.078;12.108;2023-03-01T05:05:49;2.83;;;1.60;;
35699;SDS011;21818;51.078;12.108;2023-03-01T05:08:16;1.98;;;1.02;;
35699;SDS011;21818;51.078;12.108;2023-03-01T05:10:46;1.88;;;0.95;;
35699;SDS011;21818;51.078;12.108;2023-03-01T05:13:15;1.60;;;1.20;;
35699;SDS011;21818;51.078;12.108;2023-03-01T05:15:46;2.27;;;1.43;;
35699;SDS011;21818;51.078;12.108;2023-03-01T05:18:19;2.28;;;1.20;;
35699;SDS011;21818;51.078;12.108;2023-03-01T05:20:45;1.88;;;1.08;;
35699;SDS011;21818;51.078;12.108;2023-03-01T05:23:12;3.45;;;2.28;;
35699;SDS011;21818;51.078;12.108;2023-03-01T05:25:38;2.38;;;1.17;;
35699;SDS011;21818;51.078;12.108;2023-03-01T05:28:05;1.08;;;0.98;;
35699;SDS011;21818;51.078;12.108;2023-03-01T05:30:34;1.77;;;1.10;;
35699;SDS011;21818;51.078;12.108;2023-03-01T05:33:00;3.30;;;1.60;;
35699;SDS011;21818;51.078;12.108;2023-03-01T05:35:26;2.40;;;1.00;;
35699;SDS011;21818;51.078;12.108;2023-03-01T05:37:52;3.67;;;1.33;;
35699;SDS011;21818;51.078;12.108;2023-03-01T05:40:19;2.00;;;1.17;;
35699;SDS011;21818;51.078;12.108;2023-03-01T05:42:56;2.13;;;1.13;;
35699;SDS011;21818;51.078;12.108;2023-03-01T05:45:22;2.83;;;0.95;;
35699;SDS011;21818;51.078;12.108;2023-03-01T05:47:49;1.92;;;0.95;;
35699;SDS011;21818;51.078;12.108;2023-03-01T05:50:23;4.05;;;1.52;;
35699;SDS011;21818;51.078;12.108;2023-03-01T05:52:51;2.63;;;1.38;;
35699;SDS011;21818;51.078;12.108;2023-03-01T05:55:21;2.30;;;1.30;;
35699;SDS011;21818;51.078;12.108;2023-03-01T05:57:47;1.52;;;1.05;;
35699;SDS011;21818;51.078;12.108;2023-03-01T06:00:14;1.95;;;1.25;;
35699;SDS011;21818;51.078;12.108;2023-03-01T06:02:41;1.30;;;0.90;;
35699;SDS011;21818;51.078;12.108;2023-03-01T06:05:07;2.30;;;1.23;;
35699;SDS011;21818;51.078;12.108;2023-03-01T06:07:34;4.13;;;1.48;;
35699;SDS011;21818;51.078;12.108;2023-03-01T06:10:00;2.08;;;1.13;;
35699;SDS011;21818;51.078;12.108;2023-03-01T06:12:30;1.67;;;1.10;;
35699;SDS011;21818;51.078;12.108;2023-03-01T06:15:05;1.63;;;1.20;;
35699;SDS011;21818;51.078;12.108;2023-03-01T06:17:35;1.42;;;0.95;;
35699;SDS011;21818;51.078;12.108;2023-03-01T06:20:03;1.95;;;1.27;;
35699;SDS011;21818;51.078;12.108;2023-03-01T06:22:36;1.67;;;1.00;;
35699;SDS011;21818;51.078;12.108;2023-03-01T06:25:03;1.50;;;1.00;;
35699;SDS011;21818;51.078;12.108;2023-03-01T06:27:29;1.67;;;1.10;;
35699;SDS011;21818;51.078;12.108;2023-03-01T06:29:55;3.25;;;1.33;;
35699;SDS011;21818;51.078;12.108;2023-03-01T06:32:20;3.00;;;1.20;;
35699;SDS011;21818;51.078;12.108;2023-03-01T06:34:46;4.63;;;1.38;;
35699;SDS011;21818;51.078;12.108;2023-03-01T06:37:11;5.85;;;1.80;;
35699;SDS011;21818;51.078;12.108;2023-03-01T06:39:37;5.35;;;1.65;;
35699;SDS011;21818;51.078;12.108;2023-03-01T06:42:03;2.55;;;1.40;;
35699;SDS011;21818;51.078;12.108;2023-03-01T06:44:29;2.65;;;1.40;;
35699;SDS011;21818;51.078;12.108;2023-03-01T06:46:54;2.40;;;1.15;;
35699;SDS011;21818;51.078;12.108;2023-03-01T06:49:20;3.42;;;1.55;;
35699;SDS011;21818;51.078;12.108;2023-03-01T06:51:46;1.92;;;1.10;;
35699;SDS011;21818;51.078;12.108;2023-03-01T06:54:11;2.28;;;1.30;;
35699;SDS011;21818;51.078;12.108;2023-03-01T06:56:37;2.25;;;1.23;;
35699;SDS011;21818;51.078;12.108;2023-03-01T06:59:03;2.28;;;1.70;;
35699;SDS011;21818;51.078;12.108;2023-03-01T07:01:29;2.75;;;1.30;;
35699;SDS011;21818;51.078;12.108;2023-03-01T07:03:55;3.03;;;1.23;;
35699;SDS011;21818;51.078;12.108;2023-03-01T07:06:21;3.63;;;1.77;;
35699;SDS011;21818;51.078;12.108;2023-03-01T07:08:47;5.28;;;1.50;;
35699;SDS011;21818;51.078;12.108;2023-03-01T07:11:13;2.08;;;1.35;;
35699;SDS011;21818;51.078;12.108;2023-03-01T07:13:39;2.17;;;1.33;;
35699;SDS011;21818;51.078;12.108;2023-03-01T07:16:04;1.52;;;1.10;;
35699;SDS011;21818;51.078;12.108;2023-03-01T07:18:30;2.75;;;1.55;;
35699;SDS011;21818;51.078;12.108;2023-03-01T07:20:56;1.92;;;1.25;;
35699;SDS011;21818;51.078;12.108;2023-03-01T07:23:21;3.83;;;1.42;;
35699;SDS011;21818;51.078;12.108;2023-03-01T07:25:51;17.05;;;8.18;;
35699;SDS011;21818;51.078;12.108;2023-03-01T07:28:20;18.45;;;10.23;;
35699;SDS011;21818;51.078;12.108;2023-03-01T07:30:47;18.95;;;9.90;;
35699;SDS011;21818;51.078;12.108;2023-03-01T07:33:12;17.15;;;9.45;;
35699;SDS011;21818;51.078;12.108;2023-03-01T07:35:38;40.42;;;9.35;;
35699;SDS011;21818;51.078;12.108;2023-03-01T07:38:03;42.67;;;8.52;;
35699;SDS011;21818;51.078;12.108;2023-03-01T07:40:29;30.00;;;8.90;;
35699;SDS011;21818;51.078;12.108;2023-03-01T07:42:55;33.30;;;9.93;;
35699;SDS011;21818;51.078;12.108;2023-03-01T07:45:22;25.60;;;8.07;;
35699;SDS011;21818;51.078;12.108;2023-03-01T07:47:49;30.55;;;8.23;;
35699;SDS011;21818;51.078;12.108;2023-03-01T07:50:16;32.65;;;7.35;;
35699;SDS011;21818;51.078;12.108;2023-03-01T07:52:41;24.48;;;7.25;;
35699;SDS011;21818;51.078;12.108;2023-03-01T07:55:09;36.67;;;6.43;;
35699;SDS011;21818;51.078;12.108;2023-03-01T07:57:35;27.08;;;7.65;;
35699;SDS011;21818;51.078;12.108;2023-03-01T08:00:00;27.40;;;7.97;;
35699;SDS011;21818;51.078;12.108;2023-03-01T08:02:26;21.10;;;6.75;;
35699;SDS011;21818;51.078;12.108;2023-03-01T08:04:51;21.08;;;7.05;;
35699;SDS011;21818;51.078;12.108;2023-03-01T08:07:17;22.80;;;6.95;;
35699;SDS011;21818;51.078;12.108;2023-03-01T08:09:42;25.70;;;7.80;;
35699;SDS011;21818;51.078;12.108;2023-03-01T08:12:08;31.20;;;7.30;;
35699;SDS011;21818;51.078;12.108;2023-03-01T08:14:33;22.20;;;6.47;;
35699;SDS011;21818;51.078;12.108;2023-03-01T08:16:59;28.98;;;6.70;;
35699;SDS011;21818;51.078;12.108;2023-03-01T08:19:25;24.35;;;6.47;;
35699;SDS011;21818;51.078;12.108;2023-03-01T08:21:52;22.13;;;6.28;;
35699;SDS011;21818;51.078;12.108;2023-03-01T08:24:18;29.23;;;6.90;;
35699;SDS011;21818;51.078;12.108;2023-03-01T08:26:43;25.65;;;6.88;;
35699;SDS011;21818;51.078;12.108;2023-03-01T08:29:09;23.10;;;6.47;;
35699;SDS011;21818;51.078;12.108;2023-03-01T08:31:36;20.17;;;5.82;;
35699;SDS011;21818;51.078;12.108;2023-03-01T08:34:05;22.60;;;5.70;;
35699;SDS011;21818;51.078;12.108;2023-03-01T08:36:37;25.38;;;5.63;;
35699;SDS011;21818;51.078;12.108;2023-03-01T08:39:05;21.40;;;5.97;;
35699;SDS011;21818;51.078;12.108;2023-03-01T08:41:31;17.02;;;5.30;;
35699;SDS011;21818;51.078;12.108;2023-03-01T08:43:57;26.15;;;5.88;;
35699;SDS011;21818;51.078;12.108;2023-03-01T08:46:28;20.63;;;5.40;;
35699;SDS011;21818;51.078;12.108;2023-03-01T08:48:55;26.85;;;6.95;;
35699;SDS011;21818;51.078;12.108;2023-03-01T08:51:20;23.23;;;5.65;;
35699;SDS011;21818;51.078;12.108;2023-03-01T08:53:47;24.48;;;5.50;;
35699;SDS011;21818;51.078;12.108;2023-03-01T08:56:14;20.80;;;6.07;;
35699;SDS011;21818;51.078;12.108;2023-03-01T08:58:42;21.70;;;5.95;;
35699;SDS011;21818;51.078;12.108;2023-03-01T09:01:13;26.58;;;5.53;;
35699;SDS011;21818;51.078;12.108;2023-03-01T09:03:40;17.13;;;6.07;;
35699;SDS011;21818;51.078;12.108;2023-03-01T09:06:06;20.63;;;5.85;;
35699;SDS011;21818;51.078;12.108;2023-03-01T09:08:36;18.35;;;6.22;;
35699;SDS011;21818;51.078;12.108;2023-03-01T09:11:04;20.67;;;5.90;;
35699;SDS011;21818;51.078;12.108;2023-03-01T09:13:31;16.23;;;5.97;;
35699;SDS011;21818;51.078;12.108;2023-03-01T09:15:57;21.23;;;5.68;;
35699;SDS011;21818;51.078;12.108;2023-03-01T09:18:23;19.95;;;5.15;;
35699;SDS011;21818;51.078;12.108;2023-03-01T09:20:49;19.15;;;5.82;;
35699;SDS011;21818;51.078;12.108;2023-03-01T09:23:15;20.65;;;5.38;;
35699;SDS011;21818;51.078;12.108;2023-03-01T09:25:40;20.73;;;4.97;;
35699;SDS011;21818;51.078;12.108;2023-03-01T09:28:06;18.85;;;5.88;;
35699;SDS011;21818;51.078;12.108;2023-03-01T09:30:31;22.13;;;5.43;;
35699;SDS011;21818;51.078;12.108;2023-03-01T09:32:57;24.42;;;6.68;;
35699;SDS011;21818;51.078;12.108;2023-03-01T09:35:23;15.40;;;6.13;;
35699;SDS011;21818;51.078;12.108;2023-03-01T09:37:49;19.83;;;7.10;;
35699;SDS011;21818;51.078;12.108;2023-03-01T09:40:16;20.83;;;7.00;;
35699;SDS011;21818;51.078;12.108;2023-03-01T09:42:46;13.93;;;5.05;;
35699;SDS011;21818;51.078;12.108;2023-03-01T09:45:21;14.40;;;5.75;;
35699;SDS011;21818;51.078;12.108;2023-03-01T09:47:58;11.60;;;4.85;;
35699;SDS011;21818;51.078;12.108;2023-03-01T09:50:24;13.55;;;5.53;;
35699;SDS011;21818;51.078;12.108;2023-03-01T09:55:46;17.65;;;5.13;;
35699;SDS011;21818;51.078;12.108;2023-03-01T09:58:32;17.95;;;4.95;;
35699;SDS011;21818;51.078;12.108;2023-03-01T10:01:10;13.00;;;5.68;;
35699;SDS011;21818;51.078;12.108;2023-03-01T10:06:43;15.10;;;5.22;;
35699;SDS011;21818;51.078;12.108;2023-03-01T10:09:16;11.73;;;4.85;;
35699;SDS011;21818;51.078;12.108;2023-03-01T10:11:45;14.32;;;6.07;;
35699;SDS011;21818;51.078;12.108;2023-03-01T10:14:27;12.55;;;4.30;;
35699;SDS011;21818;51.078;12.108;2023-03-01T10:17:27;16.27;;;5.30;;
35699;SDS011;21818;51.078;12.108;2023-03-01T10:20:20;13.13;;;4.90;;
35699;SDS011;21818;51.078;12.108;2023-03-01T10:22:45;13.98;;;5.05;;
35699;SDS011;21818;51.078;12.108;2023-03-01T10:25:15;13.80;;;5.00;;
35699;SDS011;21818;51.078;12.108;2023-03-01T10:27:52;14.48;;;4.55;;
35699;SDS011;21818;51.078;12.108;2023-03-01T10:30:20;17.42;;;4.38;;
35699;SDS011;21818;51.078;12.108;2023-03-01T10:32:54;11.18;;;4.53;;
35699;SDS011;21818;51.078;12.108;2023-03-01T10:35:25;12.32;;;4.95;;
35699;SDS011;21818;51.078;12.108;2023-03-01T10:37:58;11.63;;;3.92;;
35699;SDS011;21818;51.078;12.108;2023-03-01T10:40:24;12.25;;;4.45;;
35699;SDS011;21818;51.078;12.108;2023-03-01T10:42:49;15.45;;;4.65;;
35699;SDS011;21818;51.078;12.108;2023-03-01T10:50:37;17.88;;;4.82;;
35699;SDS011;21818;51.078;12.108;2023-03-01T10:53:05;9.60;;;3.72;;
35699;SDS011;21818;51.078;12.108;2023-03-01T10:56:07;13.73;;;5.18;;
35699;SDS011;21818;51.078;12.108;2023-03-01T10:58:34;10.95;;;3.88;;
35699;SDS011;21818;51.078;12.108;2023-03-01T11:01:06;11.70;;;4.20;;
35699;SDS011;21818;51.078;12.108;2023-03-01T11:04:03;11.00;;;4.40;;
35699;SDS011;21818;51.078;12.108;2023-03-01T11:06:38;13.95;;;3.58;;
35699;SDS011;21818;51.078;12.108;2023-03-01T11:11:41;14.00;;;4.45;;
35699;SDS011;21818;51.078;12.108;2023-03-01T11:14:12;11.95;;;3.85;;
35699;SDS011;21818;51.078;12.108;2023-03-01T11:16:49;11.85;;;5.30;;
35699;SDS011;21818;51.078;12.108;2023-03-01T11:19:24;10.50;;;3.88;;
35699;SDS011;21818;51.078;12.108;2023-03-01T11:21:55;10.15;;;4.03;;
35699;SDS011;21818;51.078;12.108;2023-03-01T11:24:29;8.35;;;4.03;;
35699;SDS011;21818;51.078;12.108;2023-03-01T11:27:14;9.07;;;3.53;;
35699;SDS011;21818;51.078;12.108;2023-03-01T11:30:09;10.10;;;4.07;;
35699;SDS011;21818;51.078;12.108;2023-03-01T11:35:27;17.08;;;4.45;;
35699;SDS011;21818;51.078;12.108;2023-03-01T11:40:41;12.32;;;4.18;;
35699;SDS011;21818;51.078;12.108;2023-03-01T11:43:24;9.20;;;3.55;;
35699;SDS011;21818;51.078;12.108;2023-03-01T11:46:05;13.10;;;4.75;;
35699;SDS011;21818;51.078;12.108;2023-03-01T11:49:02;11.68;;;4.07;;
35699;SDS011;21818;51.078;12.108;2023-03-01T11:54:47;12.13;;;4.25;;
35699;SDS011;21818;51.078;12.108;2023-03-01T12:14:16;13.27;;;5.28;;
35699;SDS011;21818;51.078;12.108;2023-03-01T12:20:00;8.45;;;3.55;;
35699;SDS011;21818;51.078;12.108;2023-03-01T12:22:52;9.00;;;3.38;;
35699;SDS011;21818;51.078;12.108;2023-03-01T12:36:24;10.70;;;3.92;;
35699;SDS011;21818;51.078;12.108;2023-03-01T12:50:40;9.80;;;4.20;;
35699;SDS011;21818;51.078;12.108;2023-03-01T12:53:15;7.15;;;3.53;;
35699;SDS011;21818;51.078;12.108;2023-03-01T12:55:44;8.60;;;3.75;;
35699;SDS011;21818;51.078;12.108;2023-03-01T13:17:49;6.72;;;3.35;;
35699;SDS011;21818;51.078;12.108;2023-03-01T13:20:18;10.88;;;3.47;;
35699;SDS011;21818;51.078;12.108;2023-03-01T13:22:48;8.82;;;3.60;;
35699;SDS011;21818;51.078;12.108;2023-03-01T13:25:30;11.63;;;3.58;;
35699;SDS011;21818;51.078;12.108;2023-03-01T13:30:59;9.82;;;4.18;;
35699;SDS011;21818;51.078;12.108;2023-03-01T13:35:51;11.75;;;3.97;;
35699;SDS011;21818;51.078;12.108;2023-03-01T13:46:44;6.85;;;3.60;;
35699;SDS011;21818;51.078;12.108;2023-03-01T13:49:14;7.35;;;3.75;;
35699;SDS011;21818;51.078;12.108;2023-03-01T13:51:46;9.43;;;3.75;;
35699;SDS011;21818;51.078;12.108;2023-03-01T13:54:12;7.00;;;3.22;;
35699;SDS011;21818;51.078;12.108;2023-03-01T13:56:40;8.18;;;3.28;;
35699;SDS011;21818;51.078;12.108;2023-03-01T13:59:14;8.32;;;3.15;;
35699;SDS011;21818;51.078;12.108;2023-03-01T14:01:42;8.38;;;3.58;;
35699;SDS011;21818;51.078;12.108;2023-03-01T14:04:19;7.32;;;3.03;;
35699;SDS011;21818;51.078;12.108;2023-03-01T14:06:47;8.38;;;2.67;;
35699;SDS011;21818;51.078;12.108;2023-03-01T14:09:20;7.65;;;3.03;;
35699;SDS011;21818;51.078;12.108;2023-03-01T14:14:38;5.18;;;2.95;;
35699;SDS011;21818;51.078;12.108;2023-03-01T14:19:54;7.55;;;3.38;;
35699;SDS011;21818;51.078;12.108;2023-03-01T14:22:24;6.53;;;3.55;;
35699;SDS011;21818;51.078;12.108;2023-03-01T14:24:55;7.47;;;3.15;;
35699;SDS011;21818;51.078;12.108;2023-03-01T14:27:23;6.72;;;3.03;;
35699;SDS011;21818;51.078;12.108;2023-03-01T14:29:58;8.80;;;3.30;;
35699;SDS011;21818;51.078;12.108;2023-03-01T14:32:30;9.27;;;3.30;;
35699;SDS011;21818;51.078;12.108;2023-03-01T14:34:57;7.63;;;3.30;;
35699;SDS011;21818;51.078;12.108;2023-03-01T14:37:31;10.23;;;3.75;;
35699;SDS011;21818;51.078;12.108;2023-03-01T14:39:59;9.73;;;3.55;;
35699;SDS011;21818;51.078;12.108;2023-03-01T14:42:27;6.82;;;3.08;;
35699;SDS011;21818;51.078;12.108;2023-03-01T14:44:55;9.40;;;3.65;;
35699;SDS011;21818;51.078;12.108;2023-03-01T14:47:27;6.88;;;2.97;;
35699;SDS011;21818;51.078;12.108;2023-03-01T14:52:36;6.70;;;2.92;;
35699;SDS011;21818;51.078;12.108;2023-03-01T14:55:05;4.65;;;2.53;;
35699;SDS011;21818;51.078;12.108;2023-03-01T14:57:42;7.70;;;3.20;;
35699;SDS011;21818;51.078;12.108;2023-03-01T15:00:19;9.07;;;3.80;;
35699;SDS011;21818;51.078;12.108;2023-03-01T15:02:50;7.85;;;3.05;;
35699;SDS011;21818;51.078;12.108;2023-03-01T15:05:18;6.32;;;3.25;;
35699;SDS011;21818;51.078;12.108;2023-03-01T15:07:50;7.15;;;3.00;;
35699;SDS011;21818;51.078;12.108;2023-03-01T15:10:27;6.80;;;3.25;;
35699;SDS011;21818;51.078;12.108;2023-03-01T15:12:54;7.25;;;3.03;;
35699;SDS011;21818;51.078;12.108;2023-03-01T15:15:36;6.45;;;3.05;;
35699;SDS011;21818;51.078;12.108;2023-03-01T15:18:14;7.95;;;3.05;;
35699;SDS011;21818;51.078;12.108;2023-03-01T15:20:43;5.43;;;2.83;;
35699;SDS011;21818;51.078;12.108;2023-03-01T15:23:28;7.38;;;3.20;;
35699;SDS011;21818;51.078;12.108;2023-03-01T15:25:55;6.00;;;2.90;;
35699;SDS011;21818;51.078;12.108;2023-03-01T15:28:26;5.03;;;2.40;;
35699;SDS011;21818;51.078;12.108;2023-03-01T15:31:16;5.93;;;3.08;;
35699;SDS011;21818;51.078;12.108;2023-03-01T15:33:48;8.10;;;3.17;;
35699;SDS011;21818;51.078;12.108;2023-03-01T15:38:57;6.80;;;3.05;;
35699;SDS011;21818;51.078;12.108;2023-03-01T15:41:28;7.53;;;3.30;;
35699;SDS011;21818;51.078;12.108;2023-03-01T15:43:56;7.25;;;2.90;;
35699;SDS011;21818;51.078;12.108;2023-03-01T15:46:30;6.28;;;2.63;;
35699;SDS011;21818;51.078;12.108;2023-03-01T15:48:58;6.47;;;2.88;;
35699;SDS011;21818;51.078;12.108;2023-03-01T15:51:28;7.72;;;2.88;;
35699;SDS011;21818;51.078;12.108;2023-03-01T15:54:06;5.90;;;3.05;;
35699;SDS011;21818;51.078;12.108;2023-03-01T15:56:39;6.03;;;3.03;;
35699;SDS011;21818;51.078;12.108;2023-03-01T15:59:04;5.43;;;2.80;;
35699;SDS011;21818;51.078;12.108;2023-03-01T16:01:32;6.70;;;3.60;;
35699;SDS011;21818;51.078;12.108;2023-03-01T16:03:59;4.93;;;2.67;;
35699;SDS011;21818;51.078;12.108;2023-03-01T16:06:24;6.47;;;3.10;;
35699;SDS011;21818;51.078;12.108;2023-03-01T16:08:50;5.20;;;2.65;;
35699;SDS011;21818;51.078;12.108;2023-03-01T16:11:17;3.60;;;2.38;;
35699;SDS011;21818;51.078;12.108;2023-03-01T16:13:44;5.95;;;2.30;;
35699;SDS011;21818;51.078;12.108;2023-03-01T16:16:11;5.03;;;2.40;;
35699;SDS011;21818;51.078;12.108;2023-03-01T16:18:39;5.60;;;2.53;;
35699;SDS011;21818;51.078;12.108;2023-03-01T16:21:08;6.93;;;3.22;;
35699;SDS011;21818;51.078;12.108;2023-03-01T16:26:03;5.57;;;2.72;;
35699;SDS011;21818;51.078;12.108;2023-03-01T16:28:29;6.10;;;2.35;;
35699;SDS011;21818;51.078;12.108;2023-03-01T16:30:54;4.57;;;2.63;;
35699;SDS011;21818;51.078;12.108;2023-03-01T16:33:20;5.00;;;2.50;;
35699;SDS011;21818;51.078;12.108;2023-03-01T16:35:46;5.57;;;2.42;;
35699;SDS011;21818;51.078;12.108;2023-03-01T16:38:11;5.00;;;3.15;;